Time;durP1;ratioP1;P1;durP2;ratioP2;P2;SDS_P1;SDS_P2;PMS_P1;PMS_P2;Temp;Humidity;BMP_temperature;BMP_pressure;BME280_temperature;BME280_humidity;BME280_pressure;Samples;Min_cycle;Max_cycle;Signal;HPM_P1;HPM_P2
2021/06/14 00:01:38;;;;;;;7.80;5.33;;;16.20;99.90;;;;;;5113435;27;20454;-79
2021/06/14 00:04:07;;;;;;;10.00;4.93;;;16.20;99.90;;;;;;5107834;28;20457;-78
2021/06/14 00:06:35;;;;;;;6.33;5.37;;;16.20;99.90;;;;;;5080891;28;20470;-78
2021/06/14 00:09:05;;;;;;;9.20;5.70;;;16.20;99.90;;;;;;5113808;28;20445;-78
2021/06/14 00:11:33;;;;;;;7.73;5.00;;;16.20;99.90;;;;;;5111206;28;20955;-77
2021/06/14 00:14:00;;;;;;;6.20;4.37;;;16.20;99.90;;;;;;5102159;28;20478;-79
2021/06/14 00:16:26;;;;;;;6.93;4.53;;;16.10;99.90;;;;;;5114511;28;20486;-79
2021/06/14 00:18:53;;;;;;;7.80;5.20;;;16.10;1.00;;;;;;5112979;28;20821;-81
2021/06/14 00:21:21;;;;;;;7.27;5.10;;;16.10;1.00;;;;;;5098505;28;20450;-79
2021/06/14 00:23:49;;;;;;;6.27;4.90;;;16.10;1.00;;;;;;5105860;28;20814;-80
2021/06/14 00:26:17;;;;;;;5.57;4.67;;;16.10;1.00;;;;;;5108731;28;20817;-80
2021/06/14 00:28:44;;;;;;;5.30;4.60;;;16.10;1.00;;;;;;5104331;28;20455;-79
2021/06/14 00:31:12;;;;;;;8.37;5.10;;;16.10;1.00;;;;;;5108576;28;20435;-78
2021/06/14 00:33:39;;;;;;;6.57;4.60;;;16.10;1.00;;;;;;5101735;28;20447;-80
2021/06/14 00:36:10;;;;;;;5.73;4.60;;;16.10;1.00;;;;;;5094822;28;22231;-79
2021/06/14 00:38:38;;;;;;;6.23;4.20;;;16.10;1.00;;;;;;5096122;28;20458;-78
2021/06/14 00:41:07;;;;;;;6.80;4.10;;;16.10;1.00;;;;;;5098887;28;20462;-80
2021/06/14 00:43:38;;;;;;;8.00;4.70;;;16.10;1.00;;;;;;5109084;28;20458;-80
2021/06/14 00:46:06;;;;;;;5.60;4.30;;;16.00;1.00;;;;;;5111844;28;20473;-79
2021/06/14 00:48:34;;;;;;;5.50;4.17;;;16.00;1.00;;;;;;5102496;28;20457;-80
2021/06/14 00:51:02;;;;;;;6.40;4.17;;;16.00;1.00;;;;;;5110803;28;20443;-81
2021/06/14 00:53:32;;;;;;;8.97;5.10;;;16.00;1.00;;;;;;5105701;28;20943;-80
2021/06/14 00:56:00;;;;;;;5.63;4.60;;;16.00;1.00;;;;;;5107437;28;20478;-80
2021/06/14 00:58:28;;;;;;;6.43;4.20;;;16.00;1.00;;;;;;5112676;28;20434;-80
2021/06/14 01:00:56;;;;;;;7.50;4.70;;;15.90;1.00;;;;;;5109766;28;20443;-78
2021/06/14 01:03:23;;;;;;;9.10;4.87;;;15.90;1.00;;;;;;5111099;28;20438;-79
2021/06/14 01:05:52;;;;;;;6.53;4.57;;;15.90;22.20;;;;;;5102850;28;20478;-79
2021/06/14 01:08:22;;;;;;;6.67;4.67;;;15.90;99.90;;;;;;5093030;28;20959;-80
2021/06/14 01:10:50;;;;;;;7.37;4.70;;;15.80;99.90;;;;;;5107107;28;20451;-80
2021/06/14 01:13:34;;;;;;;4.70;4.30;;;15.80;99.90;;;;;;5112296;28;20947;-77
2021/06/14 01:16:10;;;;;;;5.00;4.17;;;15.80;99.90;;;;;;5108301;28;21064;-81
2021/06/14 01:18:48;;;;;;;6.57;4.77;;;15.80;99.90;;;;;;5111830;28;20433;-80
2021/06/14 01:21:23;;;;;;;5.83;4.50;;;15.70;99.90;;;;;;5100896;28;20547;-79
2021/06/14 01:24:20;;;;;;;7.60;5.40;;;15.70;1.00;;;;;;5094787;28;20458;-81
2021/06/14 01:27:00;;;;;;;5.70;4.27;;;15.70;1.00;;;;;;5109795;28;20706;-78
2021/06/14 01:29:30;;;;;;;12.63;4.80;;;15.60;1.00;;;;;;5105631;28;20911;-79
2021/06/14 01:31:59;;;;;;;7.63;5.10;;;15.60;1.00;;;;;;5101917;28;20458;-78
2021/06/14 01:34:28;;;;;;;6.50;4.60;;;15.60;1.00;;;;;;5110136;28;20431;-79
2021/06/14 01:36:57;;;;;;;6.40;4.50;;;15.50;36.40;;;;;;5104746;28;20494;-78
2021/06/14 01:39:26;;;;;;;6.87;4.80;;;15.50;99.90;;;;;;5104086;28;20462;-78
2021/06/14 01:41:54;;;;;;;6.13;5.00;;;15.50;99.90;;;;;;5100947;28;20469;-80
2021/06/14 01:44:24;;;;;;;7.20;5.70;;;15.50;99.90;;;;;;5104432;28;20778;-79
2021/06/14 01:46:56;;;;;;;5.57;4.47;;;15.40;99.90;;;;;;5101547;28;20492;-79
2021/06/14 01:49:24;;;;;;;6.77;4.40;;;15.40;99.90;;;;;;5112718;28;20446;-79
2021/06/14 01:51:52;;;;;;;7.47;4.80;;;15.40;99.90;;;;;;5110454;28;20465;-79
2021/06/14 01:54:19;;;;;;;5.30;4.60;;;15.30;99.90;;;;;;5099591;28;20456;-80
2021/06/14 01:56:49;;;;;;;7.00;5.30;;;15.30;99.90;;;;;;5109237;28;20845;-80
2021/06/14 01:59:18;;;;;;;6.50;4.70;;;15.20;99.90;;;;;;5108276;28;20441;-80
2021/06/14 02:01:47;;;;;;;5.80;4.50;;;15.20;1.00;;;;;;5077778;28;20467;-78
2021/06/14 02:04:16;;;;;;;7.50;4.83;;;15.20;1.00;;;;;;5102519;28;20993;-78
2021/06/14 02:06:49;;;;;;;6.43;4.87;;;15.10;1.00;;;;;;5110729;28;20479;-79
2021/06/14 02:09:18;;;;;;;7.13;5.10;;;15.10;1.00;;;;;;5110297;28;20540;-81
2021/06/14 02:11:47;;;;;;;7.90;4.97;;;15.10;1.00;;;;;;5112511;28;20535;-81
2021/06/14 02:14:15;;;;;;;7.40;5.03;;;15.00;1.00;;;;;;5112147;28;20530;-80
2021/06/14 02:16:43;;;;;;;7.13;5.03;;;15.00;1.00;;;;;;5112310;28;20485;-78
2021/06/14 02:19:12;;;;;;;8.13;4.77;;;15.00;29.20;;;;;;5108529;28;20449;-80
2021/06/14 02:21:41;;;;;;;5.83;5.27;;;15.00;99.90;;;;;;5098089;28;20847;-80
2021/06/14 02:24:08;;;;;;;7.40;5.33;;;14.90;99.90;;;;;;5098801;28;20465;-78
2021/06/14 02:26:36;;;;;;;8.37;5.33;;;14.90;99.90;;;;;;5111498;28;20492;-79
2021/06/14 02:29:03;;;;;;;8.33;4.50;;;14.90;99.90;;;;;;5109152;28;20963;-79
2021/06/14 02:31:30;;;;;;;6.20;5.00;;;14.80;99.90;;;;;;5108102;28;20470;-79
2021/06/14 02:33:57;;;;;;;8.70;4.70;;;14.80;99.90;;;;;;5106819;28;20432;-79
2021/06/14 02:36:25;;;;;;;7.63;5.17;;;14.80;99.90;;;;;;5108206;28;20455;-79
2021/06/14 02:38:54;;;;;;;7.47;5.77;;;14.80;99.90;;;;;;5096454;28;20991;-79
2021/06/14 02:41:22;;;;;;;7.23;5.20;;;14.70;99.90;;;;;;5106675;28;20474;-80
2021/06/14 02:43:51;;;;;;;9.10;4.77;;;14.70;99.90;;;;;;5105324;28;20974;-79
2021/06/14 02:46:19;;;;;;;7.30;5.40;;;14.70;99.90;;;;;;5102931;28;20514;-80
2021/06/14 02:48:49;;;;;;;8.43;5.33;;;14.60;99.90;;;;;;5107843;28;20451;-78
2021/06/14 02:51:18;;;;;;;12.20;6.10;;;14.60;99.90;;;;;;5108387;28;20489;-77
2021/06/14 02:54:03;;;;;;;7.83;5.57;;;14.50;99.90;;;;;;5110769;28;20466;-79
2021/06/14 02:56:32;;;;;;;9.20;5.63;;;14.50;99.90;;;;;;5109041;28;20487;-80
2021/06/14 02:59:01;;;;;;;5.73;4.90;;;14.40;99.90;;;;;;5111350;28;20496;-78
2021/06/14 03:01:30;;;;;;;8.60;5.10;;;14.40;99.90;;;;;;5111382;28;20453;-80
2021/06/14 03:03:58;;;;;;;9.80;5.47;;;14.40;99.90;;;;;;5104193;28;20465;-79
2021/06/14 03:06:26;;;;;;;6.20;5.50;;;14.40;99.90;;;;;;5116257;28;20462;-79
2021/06/14 03:08:54;;;;;;;5.80;5.10;;;14.40;99.90;;;;;;5108103;28;20443;-79
2021/06/14 03:11:25;;;;;;;8.40;5.27;;;14.30;99.90;;;;;;5112470;28;20446;-77
2021/06/14 03:13:54;;;;;;;5.80;4.50;;;14.30;99.90;;;;;;5113924;28;20538;-77
2021/06/14 03:16:24;;;;;;;8.80;6.03;;;14.30;99.90;;;;;;5089852;28;20474;-77
2021/06/14 03:18:52;;;;;;;5.73;4.67;;;14.30;99.90;;;;;;5125530;27;20852;-77
2021/06/14 03:21:22;;;;;;;6.53;4.77;;;14.30;99.90;;;;;;5102543;28;20481;-79
2021/06/14 03:23:49;;;;;;;10.83;5.47;;;14.20;99.90;;;;;;5120227;27;20492;-79
2021/06/14 03:26:18;;;;;;;8.10;5.73;;;14.20;99.90;;;;;;5116569;28;20540;-78
2021/06/14 03:28:47;;;;;;;7.77;4.90;;;14.20;99.90;;;;;;5113795;28;20486;-78
2021/06/14 03:31:18;;;;;;;7.90;5.10;;;14.20;99.90;;;;;;5108350;27;20451;-77
2021/06/14 03:33:48;;;;;;;6.63;5.13;;;14.10;99.90;;;;;;5110497;28;20852;-78
2021/06/14 03:36:16;;;;;;;9.33;5.60;;;14.10;99.90;;;;;;5109950;28;20477;-78
2021/06/14 03:38:44;;;;;;;9.07;5.37;;;14.10;99.90;;;;;;5094883;28;20455;-81
2021/06/14 03:41:12;;;;;;;12.43;5.23;;;14.10;99.90;;;;;;5094659;28;20442;-77
2021/06/14 03:43:39;;;;;;;8.70;6.20;;;14.10;99.90;;;;;;5109221;28;20431;-78
2021/06/14 03:46:06;;;;;;;5.70;5.07;;;14.10;99.90;;;;;;5098686;28;20470;-79
2021/06/14 03:48:34;;;;;;;10.00;5.60;;;14.10;99.90;;;;;;5106520;28;20491;-78
2021/06/14 03:51:01;;;;;;;6.37;4.87;;;14.10;99.90;;;;;;5127793;27;20446;-78
2021/06/14 03:53:31;;;;;;;8.63;5.67;;;14.00;99.90;;;;;;5112528;28;20454;-78
2021/06/14 03:55:58;;;;;;;9.20;5.80;;;14.10;99.90;;;;;;5102005;28;20471;-78
2021/06/14 03:58:25;;;;;;;7.13;4.87;;;14.10;99.90;;;;;;5102888;28;20454;-78
2021/06/14 04:00:52;;;;;;;6.87;5.20;;;14.10;99.90;;;;;;5110841;28;20924;-79
2021/06/14 04:03:20;;;;;;;8.70;5.80;;;14.10;99.90;;;;;;5106775;28;20462;-78
2021/06/14 04:05:48;;;;;;;6.33;5.40;;;14.20;99.90;;;;;;5096953;28;20479;-78
2021/06/14 04:08:15;;;;;;;7.50;5.37;;;14.20;99.90;;;;;;5105666;28;20485;-78
2021/06/14 04:10:42;;;;;;;5.53;5.03;;;14.20;99.90;;;;;;5109278;27;20553;-77
2021/06/14 04:13:09;;;;;;;7.90;4.93;;;14.20;99.90;;;;;;5106337;28;20453;-78
2021/06/14 04:15:37;;;;;;;6.73;5.30;;;14.30;99.90;;;;;;5113514;28;20483;-77
2021/06/14 04:18:05;;;;;;;8.10;5.57;;;14.40;99.90;;;;;;5111990;28;20844;-78
2021/06/14 04:20:33;;;;;;;8.40;5.60;;;14.40;99.90;;;;;;5096784;28;20464;-78
2021/06/14 04:23:01;;;;;;;7.30;5.87;;;14.40;99.90;;;;;;5112175;28;20768;-79
2021/06/14 04:25:28;;;;;;;6.53;5.23;;;14.40;99.90;;;;;;5108646;28;20796;-77
2021/06/14 04:27:58;;;;;;;10.53;6.43;;;14.50;99.90;;;;;;5108795;28;20482;-78
2021/06/14 04:30:25;;;;;;;6.80;5.27;;;14.60;99.90;;;;;;5112557;28;20444;-78
2021/06/14 04:32:51;;;;;;;7.13;4.70;;;14.60;99.90;;;;;;5111187;28;20459;-77
2021/06/14 04:35:18;;;;;;;8.30;5.60;;;14.70;99.90;;;;;;5113463;28;20915;-78
2021/06/14 04:37:46;;;;;;;10.03;5.07;;;14.80;99.90;;;;;;5111735;28;20814;-77
2021/06/14 04:40:14;;;;;;;11.47;5.13;;;14.90;99.90;;;;;;5109364;28;20457;-79
2021/06/14 04:42:41;;;;;;;10.20;5.23;;;15.10;99.90;;;;;;5113890;28;20456;-79
2021/06/14 04:45:09;;;;;;;8.80;5.53;;;15.20;99.90;;;;;;5106169;28;20923;-78
2021/06/14 04:47:36;;;;;;;8.40;5.20;;;15.30;99.90;;;;;;5102618;28;20845;-80
2021/06/14 04:50:03;;;;;;;7.37;5.10;;;15.40;99.90;;;;;;5106022;28;20464;-77
2021/06/14 04:52:30;;;;;;;9.20;5.03;;;15.60;99.90;;;;;;5097588;27;20451;-79
2021/06/14 04:54:58;;;;;;;8.27;4.57;;;15.70;99.90;;;;;;5107284;28;20485;-77
2021/06/14 04:57:26;;;;;;;6.80;4.93;;;15.80;99.90;;;;;;5112891;28;20466;-78
2021/06/14 04:59:53;;;;;;;11.00;4.73;;;16.00;99.90;;;;;;5111886;28;21011;-80
2021/06/14 05:02:20;;;;;;;7.63;4.73;;;16.10;99.90;;;;;;5113361;28;20879;-78
2021/06/14 05:04:47;;;;;;;6.67;4.60;;;16.30;99.90;;;;;;5112295;28;20453;-80
2021/06/14 05:07:14;;;;;;;5.87;4.53;;;16.40;99.90;;;;;;5114241;28;20469;-78
2021/06/14 05:09:41;;;;;;;6.43;4.70;;;16.50;99.90;;;;;;5110759;28;20427;-76
2021/06/14 05:12:09;;;;;;;6.80;4.30;;;16.70;99.90;;;;;;5106032;28;20810;-77
2021/06/14 05:14:38;;;;;;;6.80;4.93;;;16.80;99.90;;;;;;5110749;28;20450;-76
2021/06/14 05:17:05;;;;;;;6.93;4.77;;;17.00;99.90;;;;;;5094301;28;20610;-78
2021/06/14 05:19:32;;;;;;;6.50;4.57;;;17.20;99.90;;;;;;5096476;28;20479;-79
2021/06/14 05:22:01;;;;;;;5.30;4.00;;;17.40;99.90;;;;;;5099053;28;20451;-77
2021/06/14 05:24:28;;;;;;;6.27;4.93;;;17.60;99.90;;;;;;5113135;28;20450;-77
2021/06/14 05:26:55;;;;;;;7.97;4.30;;;17.80;99.90;;;;;;5114232;28;20450;-77
2021/06/14 05:29:22;;;;;;;7.60;4.23;;;18.10;99.90;;;;;;5099659;28;20833;-77
2021/06/14 05:31:50;;;;;;;5.37;3.70;;;18.30;99.90;;;;;;5104045;28;20454;-77
2021/06/14 05:34:17;;;;;;;6.80;4.20;;;18.70;99.90;;;;;;5111015;28;20443;-77
2021/06/14 05:36:44;;;;;;;12.87;5.23;;;19.20;99.90;;;;;;5102785;28;20832;-78
2021/06/14 05:39:11;;;;;;;5.40;4.10;;;19.60;99.90;;;;;;5095035;28;20948;-77
2021/06/14 05:41:38;;;;;;;7.47;4.40;;;20.00;99.90;;;;;;5107673;28;20455;-76
2021/06/14 05:44:06;;;;;;;5.50;4.07;;;20.40;99.90;;;;;;5106233;28;20422;-79
2021/06/14 05:46:36;;;;;;;4.83;4.20;;;20.70;1.00;;;;;;5093685;28;20472;-78
2021/06/14 05:49:07;;;;;;;4.80;4.30;;;21.00;1.00;;;;;;5106934;28;20836;-79
2021/06/14 05:51:35;;;;;;;7.00;3.73;;;21.30;1.00;;;;;;5098059;28;20806;-83
2021/06/14 05:54:02;;;;;;;6.93;3.73;;;21.60;1.00;;;;;;5110168;28;20442;-80
2021/06/14 05:56:29;;;;;;;3.90;3.20;;;21.80;1.00;;;;;;5106849;28;20470;-81
2021/06/14 05:58:56;;;;;;;4.67;3.23;;;22.00;99.90;;;;;;5103648;28;20991;-86
2021/06/14 06:01:25;;;;;;;7.13;3.70;;;22.30;99.90;;;;;;5111568;28;20429;-84
2021/06/14 06:03:52;;;;;;;4.73;3.50;;;22.50;99.90;;;;;;5105527;28;20455;-87
2021/06/14 06:06:20;;;;;;;6.80;3.17;;;22.70;99.90;;;;;;5108829;28;20822;-89
2021/06/14 06:08:47;;;;;;;5.37;3.30;;;22.90;36.80;;;;;;5108529;28;20482;-83
2021/06/14 06:11:17;;;;;;;3.17;2.87;;;23.20;1.00;;;;;;5107388;28;20446;-85
2021/06/14 06:13:44;;;;;;;5.80;3.67;;;23.70;1.00;;;;;;5109272;28;20518;-85
2021/06/14 06:16:11;;;;;;;5.53;3.20;;;24.10;1.00;;;;;;5101862;28;20474;-83
2021/06/14 06:18:38;;;;;;;4.83;3.57;;;24.50;1.00;;;;;;5111677;28;20447;-85
2021/06/14 06:21:05;;;;;;;4.20;3.10;;;25.00;1.00;;;;;;5109512;28;20471;-87
2021/06/14 06:23:33;;;;;;;5.60;3.33;;;25.40;1.00;;;;;;5099210;28;20466;-84
2021/06/14 06:26:00;;;;;;;5.17;3.77;;;25.90;1.00;;;;;;5106686;28;20475;-87
2021/06/14 06:28:27;;;;;;;4.53;3.03;;;26.30;1.00;;;;;;5105442;28;20824;-86
2021/06/14 06:30:54;;;;;;;4.93;3.27;;;26.70;99.90;;;;;;5099427;28;20454;-88
2021/06/14 06:33:21;;;;;;;3.70;2.73;;;27.20;99.90;;;;;;5112072;28;20465;-82
2021/06/14 06:35:48;;;;;;;5.20;3.13;;;27.40;99.90;;;;;;5101898;28;20474;-85
2021/06/14 06:38:16;;;;;;;5.80;3.30;;;27.80;99.90;;;;;;5101940;28;20451;-86
2021/06/14 06:40:50;;;;;;;6.03;3.23;;;28.30;99.90;;;;;;5109510;28;20483;-83
2021/06/14 06:43:17;;;;;;;7.47;3.63;;;28.50;99.90;;;;;;5115702;28;20437;-82
2021/06/14 06:45:47;;;;;;;5.47;3.30;;;28.80;99.90;;;;;;5099344;27;20859;-78
2021/06/14 06:48:13;;;;;;;3.57;3.27;;;29.20;99.90;;;;;;5099366;28;20482;-81
2021/06/14 06:50:41;;;;;;;4.20;3.23;;;29.50;99.90;;;;;;5111104;28;20522;-80
2021/06/14 06:53:09;;;;;;;5.53;3.20;;;29.80;48.40;;;;;;5102994;28;20454;-79
2021/06/14 06:55:36;;;;;;;4.67;3.47;;;30.20;33.90;;;;;;5112280;28;20470;-80
2021/06/14 06:58:04;;;;;;;7.47;3.17;;;30.50;1.00;;;;;;5120765;27;20445;-79
2021/06/14 07:00:32;;;;;;;4.53;3.27;;;30.80;1.00;;;;;;5098933;28;20591;-78
2021/06/14 07:03:00;;;;;;;4.80;3.43;;;31.10;1.00;;;;;;5102931;28;20454;-80
2021/06/14 07:05:27;;;;;;;4.60;3.10;;;31.40;1.00;;;;;;5110684;28;20431;-80
2021/06/14 07:07:54;;;;;;;6.10;3.50;;;31.60;1.00;;;;;;5109427;28;20481;-79
2021/06/14 07:10:21;;;;;;;4.93;3.23;;;32.00;1.00;;;;;;5106694;28;20449;-83
2021/06/14 07:12:48;;;;;;;6.00;3.10;;;32.30;1.00;;;;;;5115509;28;20437;-80
2021/06/14 07:15:16;;;;;;;3.70;2.97;;;32.60;1.00;;;;;;5108167;28;20461;-81
2021/06/14 07:17:46;;;;;;;6.27;3.17;;;32.90;1.00;;;;;;5110242;28;20459;-80
2021/06/14 07:20:15;;;;;;;5.23;3.00;;;33.20;1.00;;;;;;5107624;28;20499;-83
2021/06/14 07:22:43;;;;;;;5.43;3.40;;;33.50;99.90;;;;;;5112067;27;20463;-79
2021/06/14 07:25:12;;;;;;;6.13;3.40;;;33.70;99.90;;;;;;5100073;28;21010;-77
2021/06/14 07:27:40;;;;;;;4.33;3.50;;;33.80;99.90;;;;;;5098433;28;20561;-79
2021/06/14 07:30:12;;;;;;;7.40;3.57;;;34.00;99.90;;;;;;5106345;28;20458;-83
2021/06/14 07:32:41;;;;;;;4.00;3.10;;;34.40;99.90;;;;;;5111403;28;20521;-82
2021/06/14 07:35:10;;;;;;;6.23;3.10;;;34.60;99.90;;;;;;5098517;28;20477;-80
2021/06/14 07:37:37;;;;;;;5.60;3.27;;;35.00;99.90;;;;;;5110833;28;20504;-78
2021/06/14 07:40:05;;;;;;;3.23;2.93;;;35.30;99.90;;;;;;5114138;28;20484;-79
2021/06/14 07:42:32;;;;;;;5.03;3.37;;;35.50;98.30;;;;;;5106482;28;20458;-82
2021/06/14 07:44:59;;;;;;;5.67;3.23;;;35.90;64.60;;;;;;5115723;28;20525;-79
2021/06/14 07:47:26;;;;;;;3.93;2.93;;;36.20;22.00;;;;;;5106716;28;20479;-78
2021/06/14 07:49:54;;;;;;;4.07;2.80;;;36.40;1.00;;;;;;5121028;27;20454;-80
2021/06/14 07:52:21;;;;;;;4.33;2.97;;;36.70;1.00;;;;;;5101540;27;20474;-78
2021/06/14 07:54:49;;;;;;;5.00;3.40;;;36.80;1.00;;;;;;5104397;28;20547;-82
2021/06/14 07:57:16;;;;;;;6.30;3.00;;;36.50;1.00;;;;;;5098195;28;21014;-78
2021/06/14 07:59:43;;;;;;;5.43;3.20;;;36.80;1.00;;;;;;5093459;28;20491;-77
2021/06/14 08:02:10;;;;;;;4.33;3.77;;;36.90;1.00;;;;;;5108242;27;20810;-81
2021/06/14 08:04:37;;;;;;;5.70;3.63;;;37.30;1.00;;;;;;5109826;27;20447;-79
2021/06/14 08:07:06;;;;;;;6.73;3.80;;;37.20;99.90;;;;;;5101951;28;20474;-79
2021/06/14 08:09:33;;;;;;;4.43;3.20;;;37.40;99.90;;;;;;5093503;28;20509;-81
2021/06/14 08:12:01;;;;;;;4.03;3.00;;;37.70;99.90;;;;;;5097000;28;20541;-79
2021/06/14 08:14:28;;;;;;;4.43;3.17;;;37.90;99.90;;;;;;5111566;28;20873;-81
2021/06/14 08:16:55;;;;;;;6.27;3.67;;;38.20;99.90;;;;;;5105039;28;20458;-80
2021/06/14 08:19:31;;;;;;;4.87;3.30;;;38.50;99.90;;;;;;5097444;28;20495;-80
2021/06/14 08:27:22;;;;;;;2.93;2.70;;;38.80;53.30;;;;;;5094020;28;20460;-78
2021/06/14 08:29:50;;;;;;;7.63;3.30;;;39.00;19.00;;;;;;5101134;28;20545;-80
2021/06/14 08:32:17;;;;;;;4.67;3.23;;;38.90;1.00;;;;;;5100952;28;20484;-83
2021/06/14 08:34:44;;;;;;;4.40;3.10;;;38.60;1.00;;;;;;5112200;28;20446;-79
2021/06/14 08:37:12;;;;;;;5.00;3.37;;;38.80;1.00;;;;;;5112890;28;20489;-79
2021/06/14 08:39:42;;;;;;;9.10;3.30;;;38.80;1.00;;;;;;5110527;27;20486;-80
2021/06/14 08:42:09;;;;;;;3.37;3.07;;;38.40;1.00;;;;;;5111911;28;20542;-78
2021/06/14 08:44:37;;;;;;;5.37;3.43;;;37.50;99.90;;;;;;5108562;28;20522;-81
2021/06/14 08:47:06;;;;;;;4.73;3.10;;;37.70;99.90;;;;;;5108810;28;20477;-79
2021/06/14 08:49:33;;;;;;;4.67;3.30;;;37.40;99.90;;;;;;5112270;28;20448;-79
2021/06/14 08:52:01;;;;;;;3.97;3.17;;;37.70;99.90;;;;;;5109153;28;20458;-78
2021/06/14 08:54:28;;;;;;;5.20;3.30;;;37.80;99.90;;;;;;5104946;28;20442;-77
2021/06/14 08:56:56;;;;;;;3.60;2.87;;;38.00;99.90;;;;;;5106848;28;20466;-78
2021/06/14 08:59:24;;;;;;;6.47;3.50;;;37.70;99.90;;;;;;5103235;28;20543;-77
2021/06/14 09:01:51;;;;;;;5.20;3.40;;;37.90;99.90;;;;;;5100403;28;20966;-79
2021/06/14 09:04:19;;;;;;;5.30;3.60;;;37.90;99.90;;;;;;5101318;28;20457;-79
2021/06/14 09:06:46;;;;;;;5.00;3.60;;;38.00;99.90;;;;;;5103483;28;20819;-78
2021/06/14 09:09:13;;;;;;;5.73;3.20;;;37.90;57.80;;;;;;5122464;27;20518;-80
2021/06/14 09:11:51;;;;;;;4.20;3.37;;;37.90;13.60;;;;;;5099447;28;20446;-77
2021/06/14 09:14:22;;;;;;;9.00;3.73;;;37.40;1.00;;;;;;5110862;28;20488;-80
2021/06/14 09:16:51;;;;;;;6.90;3.40;;;37.30;1.00;;;;;;5112722;28;20537;-79
2021/06/14 09:19:27;;;;;;;6.77;3.60;;;37.40;1.00;;;;;;5104842;28;20490;-76
2021/06/14 09:21:56;;;;;;;5.33;3.73;;;37.00;1.00;;;;;;5105171;28;20446;-77
2021/06/14 09:24:24;;;;;;;6.37;3.33;;;36.70;1.00;;;;;;5099386;28;20503;-76
2021/06/14 09:26:52;;;;;;;5.47;3.47;;;36.50;1.00;;;;;;5110134;28;20473;-79
2021/06/14 09:29:26;;;;;;;5.20;3.70;;;35.70;1.00;;;;;;5126471;27;20434;-78
2021/06/14 09:31:55;;;;;;;5.13;3.60;;;35.10;1.00;;;;;;5111185;27;20457;-82
2021/06/14 09:34:33;;;;;;;5.50;3.50;;;34.40;1.00;;;;;;5097928;28;20458;-81
2021/06/14 09:37:03;;;;;;;6.40;3.80;;;33.70;99.90;;;;;;5113674;27;20478;-77
2021/06/14 09:39:37;;;;;;;6.97;3.23;;;33.10;99.90;;;;;;5103917;28;21012;-77
2021/06/14 09:42:14;;;;;;;3.97;3.57;;;32.70;99.90;;;;;;5114291;28;20430;-76
2021/06/14 09:44:43;;;;;;;7.03;3.57;;;32.10;99.90;;;;;;5098738;28;20473;-78
2021/06/14 09:47:12;;;;;;;5.90;3.77;;;31.60;99.90;;;;;;5096128;28;20882;-78
2021/06/14 09:49:41;;;;;;;8.07;3.53;;;30.80;99.90;;;;;;5096508;28;20469;-80
2021/06/14 09:52:20;;;;;;;5.03;3.37;;;30.40;99.90;;;;;;5110839;28;20453;-78
2021/06/14 09:54:47;;;;;;;4.33;3.23;;;30.20;99.90;;;;;;5100466;28;20518;-76
2021/06/14 09:57:25;;;;;;;5.93;3.80;;;29.90;99.90;;;;;;5117144;27;20837;-77
2021/06/14 09:59:54;;;;;;;5.90;3.57;;;29.70;99.90;;;;;;5101756;28;20573;-77
2021/06/14 10:02:22;;;;;;;6.50;4.10;;;29.30;99.90;;;;;;5106623;28;20505;-75
2021/06/14 10:04:52;;;;;;;5.70;3.63;;;29.00;99.90;;;;;;5099723;28;20936;-76
2021/06/14 10:07:20;;;;;;;4.10;3.40;;;28.90;99.90;;;;;;5110104;28;20608;-77
2021/06/14 10:09:49;;;;;;;4.03;3.63;;;28.70;99.90;;;;;;5116429;28;20466;-78
2021/06/14 10:12:18;;;;;;;7.57;3.93;;;28.40;99.90;;;;;;5089489;28;20441;-77
2021/06/14 10:14:56;;;;;;;6.03;3.27;;;28.30;99.90;;;;;;5108856;28;20435;-77
2021/06/14 10:17:33;;;;;;;4.67;3.50;;;28.10;99.90;;;;;;5102725;28;20496;-77
2021/06/14 10:20:17;;;;;;;3.80;2.97;;;28.00;99.90;;;;;;5095407;28;20882;-77
2021/06/14 10:22:45;;;;;;;5.97;3.50;;;27.90;99.90;;;;;;5112495;27;20551;-79
2021/06/14 10:25:14;;;;;;;6.33;3.63;;;27.80;99.90;;;;;;5105697;28;20907;-77
2021/06/14 10:27:42;;;;;;;6.47;3.37;;;27.60;99.90;;;;;;5092311;28;20458;-78
2021/06/14 10:30:12;;;;;;;4.37;3.97;;;27.40;99.90;;;;;;5112136;28;20446;-80
2021/06/14 10:32:42;;;;;;;5.03;3.37;;;27.30;99.90;;;;;;5102898;28;20951;-77
2021/06/14 10:35:12;;;;;;;6.20;3.43;;;27.30;99.90;;;;;;5099867;28;20813;-77
2021/06/14 10:37:43;;;;;;;8.53;3.70;;;27.10;99.90;;;;;;5112126;28;20438;-80
2021/06/14 10:40:11;;;;;;;5.97;3.77;;;27.00;99.90;;;;;;5107985;28;20501;-81
2021/06/14 10:42:40;;;;;;;3.97;3.20;;;26.90;99.90;;;;;;5104364;28;20811;-80
2021/06/14 10:45:11;;;;;;;2.90;2.60;;;26.80;99.90;;;;;;5115038;28;20446;-80
2021/06/14 10:47:39;;;;;;;5.60;4.03;;;26.80;99.90;;;;;;5113136;28;20458;-80
2021/06/14 10:50:10;;;;;;;5.53;3.30;;;26.70;99.90;;;;;;5111906;28;20469;-82
2021/06/14 10:52:39;;;;;;;3.30;3.00;;;26.60;99.90;;;;;;5108316;28;20438;-76
2021/06/14 10:55:12;;;;;;;6.73;3.10;;;26.60;99.90;;;;;;5097757;28;20741;-79
2021/06/14 10:57:39;;;;;;;4.20;2.93;;;26.50;99.90;;;;;;5094960;28;20534;-77
2021/06/14 11:00:21;;;;;;;4.73;3.40;;;26.50;99.90;;;;;;5094727;28;21167;-77
2021/06/14 11:02:53;;;;;;;6.27;3.33;;;26.50;99.90;;;;;;5111678;28;20461;-77
2021/06/14 11:05:31;;;;;;;3.90;3.50;;;26.50;99.90;;;;;;5103121;28;20473;-76
2021/06/14 11:07:58;;;;;;;7.43;3.57;;;26.50;99.90;;;;;;5096355;28;20446;-77
2021/06/14 11:10:27;;;;;;;7.43;3.43;;;26.50;99.90;;;;;;5107540;28;20435;-84
2021/06/14 11:13:06;;;;;;;5.40;2.67;;;26.50;99.90;;;;;;5104791;28;20453;-78
2021/06/14 11:15:36;;;;;;;3.77;3.10;;;26.50;99.90;;;;;;5109629;28;20454;-79
2021/06/14 11:18:06;;;;;;;3.60;3.30;;;26.50;99.90;;;;;;5108223;28;20454;-77
2021/06/14 11:20:36;;;;;;;7.30;4.00;;;26.50;99.90;;;;;;5096530;27;20482;-77
2021/06/14 11:23:04;;;;;;;5.27;3.40;;;26.50;99.90;;;;;;5084702;28;20483;-80
2021/06/14 11:25:40;;;;;;;5.13;3.53;;;26.50;99.90;;;;;;5091306;28;20451;-81
2021/06/14 11:28:10;;;;;;;4.70;3.57;;;26.60;99.90;;;;;;5095886;28;20449;-82
2021/06/14 11:30:42;;;;;;;6.07;3.10;;;26.60;99.90;;;;;;5108170;28;20488;-80
2021/06/14 11:33:12;;;;;;;3.90;3.20;;;26.60;99.90;;;;;;5104090;28;20486;-78
2021/06/14 11:35:39;;;;;;;6.57;3.30;;;26.60;99.90;;;;;;5092471;28;20506;-78
2021/06/14 11:38:20;;;;;;;6.63;3.03;;;26.60;99.90;;;;;;5107621;28;20473;-83
2021/06/14 11:40:52;;;;;;;6.80;3.17;;;26.70;99.90;;;;;;5098496;28;20482;-80
2021/06/14 11:43:20;;;;;;;4.70;3.43;;;26.70;99.90;;;;;;5097215;28;20466;-78
2021/06/14 11:45:50;;;;;;;3.97;3.03;;;26.70;99.90;;;;;;5107711;28;20482;-76
2021/06/14 11:48:22;;;;;;;3.50;2.87;;;26.70;99.90;;;;;;5105147;27;20469;-77
2021/06/14 11:50:49;;;;;;;4.37;3.20;;;26.70;99.90;;;;;;5112073;28;20450;-76
2021/06/14 11:53:16;;;;;;;4.20;2.67;;;26.70;99.90;;;;;;5110391;28;20459;-79
2021/06/14 11:55:45;;;;;;;6.33;3.53;;;26.70;99.90;;;;;;5113065;28;20486;-80
2021/06/14 11:58:13;;;;;;;6.93;3.33;;;26.80;99.90;;;;;;5099434;28;20461;-79
2021/06/14 12:00:42;;;;;;;3.70;3.10;;;26.80;99.90;;;;;;5109345;28;20531;-80
2021/06/14 12:03:19;;;;;;;5.03;2.57;;;26.80;99.90;;;;;;5110680;28;21170;-80
2021/06/14 12:05:49;;;;;;;3.23;2.67;;;26.80;99.90;;;;;;5092340;28;20473;-80
2021/06/14 12:08:19;;;;;;;6.33;2.80;;;26.80;99.90;;;;;;5100767;28;20453;-82
2021/06/14 12:10:47;;;;;;;5.47;3.10;;;26.90;99.90;;;;;;5105336;28;20495;-80
2021/06/14 12:13:17;;;;;;;5.23;3.00;;;26.90;99.90;;;;;;5113842;28;20460;-81
2021/06/14 12:15:44;;;;;;;4.60;3.03;;;26.90;99.90;;;;;;5109642;28;20565;-84
2021/06/14 12:18:13;;;;;;;3.80;2.93;;;26.90;99.90;;;;;;5105383;28;20553;-79
2021/06/14 12:20:44;;;;;;;3.30;2.50;;;26.90;99.90;;;;;;5110091;28;20490;-83
2021/06/14 12:23:12;;;;;;;3.90;3.10;;;26.90;99.90;;;;;;5101993;28;20454;-82
2021/06/14 12:25:44;;;;;;;6.40;3.90;;;26.90;99.90;;;;;;5103599;28;20987;-82
2021/06/14 12:28:14;;;;;;;5.80;2.90;;;26.90;99.90;;;;;;5106049;28;20472;-80
2021/06/14 12:30:42;;;;;;;5.57;3.40;;;26.90;99.90;;;;;;5099718;28;20454;-76
2021/06/14 12:33:10;;;;;;;6.70;3.17;;;26.90;99.90;;;;;;5100151;28;20684;-77
2021/06/14 12:35:38;;;;;;;3.70;2.57;;;26.90;99.90;;;;;;5112356;28;20531;-77
2021/06/14 12:38:12;;;;;;;4.77;2.63;;;26.90;99.90;;;;;;5104443;28;20832;-77
2021/06/14 12:40:40;;;;;;;4.53;3.03;;;26.90;99.90;;;;;;5102081;28;20577;-78
2021/06/14 12:43:09;;;;;;;5.83;2.80;;;27.00;99.90;;;;;;5112170;27;20515;-75
2021/06/14 12:45:38;;;;;;;4.27;2.53;;;27.00;99.90;;;;;;5098618;27;20474;-78
2021/06/14 12:48:07;;;;;;;3.03;2.63;;;27.00;99.90;;;;;;5092831;28;20538;-76
2021/06/14 12:50:36;;;;;;;4.97;2.33;;;27.00;99.90;;;;;;5111099;27;20939;-76
2021/06/14 12:53:05;;;;;;;3.47;2.50;;;27.10;99.90;;;;;;5084658;28;20458;-78
2021/06/14 12:55:35;;;;;;;2.90;2.63;;;27.10;99.90;;;;;;5112485;28;20558;-82
2021/06/14 12:58:08;;;;;;;2.70;2.37;;;27.10;99.90;;;;;;5107986;28;20462;-84
2021/06/14 13:00:38;;;;;;;3.00;2.23;;;27.10;99.90;;;;;;5100966;28;20486;-78
2021/06/14 13:03:05;;;;;;;4.10;2.13;;;27.20;99.90;;;;;;5105047;28;20458;-77